Bayfield, Wisconsin
Current Conditions -  °F | °C
As of 12:08 AM on Wednesday 22 Oct 2014 (Local Time) from KASX Reporting Station
Moderate Fog Moderate Fog  
Wind Chill: 32°   Ceiling: Unl
Heat Index: 32°   Visibility: 0.5mi
Dew Point: 31°   Wind: 0mph
Humidity: 96%   Direction: NA
Pressure: 30.26"   Gusts: NA
Location:  46.81°N, 90.82°W
Report Text: KASX 220508Z AUTO 00000KT 1/2SM FG CLR 00/M01 A3026 RMK AO2 T00001006
Loading
Personal Weather Stations






























Interactive Weather Map
Tropical Storm Tracking
New forecast layout! Learn more

10-Day Weather Forecast

Advertisements
Track Severe Weather on mobile